createdAt,value
2019-05-09T00:00:33.513Z,11.7
2019-05-09T00:05:33.978Z,11.7
2019-05-09T00:10:41.167Z,11.6
2019-05-09T00:15:38.912Z,11.5
2019-05-09T00:20:43.370Z,11.5
2019-05-09T00:25:43.983Z,11.5
2019-05-09T00:30:46.249Z,11.4
2019-05-09T00:35:48.821Z,11.3
2019-05-09T00:40:55.841Z,11.3
2019-05-09T00:45:54.227Z,11.3
2019-05-09T00:50:56.889Z,11.3
2019-05-09T00:55:58.581Z,11.2
2019-05-09T01:01:01.003Z,11.2
2019-05-09T01:06:04.022Z,11.3
2019-05-09T01:11:12.263Z,11.3
2019-05-09T01:16:08.390Z,11.3
2019-05-09T01:21:13.093Z,11.3
2019-05-09T01:26:13.812Z,11.3
2019-05-09T01:31:15.736Z,11.4
2019-05-09T01:41:27.718Z,11.3
2019-05-09T01:46:23.643Z,11.2
2019-05-09T01:51:25.823Z,11.2
2019-05-09T01:56:28.056Z,11.1
2019-05-09T02:01:30.504Z,11.1
2019-05-09T02:06:33.344Z,11
2019-05-09T02:11:42.217Z,10.9
2019-05-09T02:16:37.928Z,11
2019-05-09T02:21:40.340Z,10.9
2019-05-09T02:26:43.858Z,10.7
2019-05-09T02:31:45.324Z,10.7
2019-05-09T02:36:49.512Z,10.7
2019-05-09T02:42:00.693Z,10.7
2019-05-09T02:46:52.703Z,10.7
2019-05-09T02:51:55.123Z,10.6
2019-05-09T02:56:58.126Z,10.6
2019-05-09T03:02:00.059Z,10.7
2019-05-09T03:07:02.418Z,10.7
2019-05-09T03:12:20.960Z,10.7
2019-05-09T03:17:08.705Z,10.6
2019-05-09T03:22:10.067Z,10.6
2019-05-09T03:27:12.310Z,10.6
2019-05-09T03:32:14.728Z,10.6
2019-05-09T03:37:17.724Z,10.6
2019-05-09T03:42:21.690Z,10.5
2019-05-09T03:52:24.553Z,10.4
2019-05-09T03:57:28.299Z,10.4
2019-05-09T04:02:29.533Z,10.3
2019-05-09T04:07:31.968Z,10.4
2019-05-09T04:12:34.402Z,10.4
2019-05-09T04:17:38.179Z,10.4
2019-05-09T04:22:39.297Z,10.4
2019-05-09T04:27:41.747Z,10.4
2019-05-09T04:32:44.215Z,10.4
2019-05-09T04:37:48.170Z,10.3
2019-05-09T04:42:49.113Z,10.4
2019-05-09T04:47:51.657Z,10.4
2019-05-09T04:52:54.027Z,10.4
2019-05-09T04:57:57.172Z,10.4
2019-05-09T05:02:58.973Z,10.5
2019-05-09T05:08:01.410Z,10.5
2019-05-09T05:13:04.016Z,10.6
2019-05-09T05:18:08.383Z,10.6
2019-05-09T05:23:08.861Z,10.6
2019-05-09T05:28:11.251Z,10.7
2019-05-09T05:33:13.815Z,10.8
2019-05-09T05:38:17.582Z,10.8
2019-05-09T05:43:18.612Z,10.9
2019-05-09T05:48:21.150Z,10.9
2019-05-09T05:53:23.523Z,10.9
2019-05-09T05:58:28.044Z,11
2019-05-09T06:03:28.437Z,11
2019-05-09T06:08:30.905Z,11
2019-05-09T06:13:33.434Z,11
2019-05-09T06:18:38.196Z,11.1
2019-05-09T06:23:38.288Z,11.2
2019-05-09T06:28:40.716Z,11.3
2019-05-09T06:33:45.921Z,11.4
2019-05-09T06:38:45.672Z,11.5
2019-05-09T06:43:49.611Z,11.6
2019-05-09T06:48:50.616Z,11.9
2019-05-09T06:53:53.407Z,12.2
2019-05-09T06:58:57.681Z,12.7
2019-05-09T07:03:57.954Z,13.6
2019-05-09T07:09:00.391Z,15.3
2019-05-09T07:14:03.332Z,17.3
2019-05-09T07:19:05.301Z,18.1
2019-05-09T07:24:08.037Z,17.6
2019-05-09T07:29:10.258Z,17.4
2019-05-09T07:34:12.690Z,17.9
2019-05-09T07:39:17.356Z,18.1
2019-05-09T07:44:18.317Z,18.1
2019-05-09T07:49:20.065Z,17.9
2019-05-09T07:54:25.579Z,17.8
2019-05-09T08:19:34.969Z,21.8
2019-05-09T08:24:48.305Z,20.7
2019-05-09T08:29:39.728Z,19.2
2019-05-09T08:34:42.215Z,18.5
2019-05-09T08:39:44.732Z,19.5
2019-05-09T08:44:48.192Z,20.5
2019-05-09T08:49:49.791Z,19.8
2019-05-09T08:54:52.016Z,20.9
2019-05-09T08:59:54.506Z,23.3
2019-05-09T09:04:58.158Z,22.4
2019-05-09T09:09:59.809Z,22
2019-05-09T09:15:02.135Z,21.9
2019-05-09T09:20:04.378Z,20.7
2019-05-09T09:25:07.611Z,20
2019-05-09T09:30:20.105Z,19.7
2019-05-09T09:35:11.728Z,20.4
2019-05-09T09:45:18.306Z,28.4
2019-05-09T09:50:19.381Z,27
2019-05-09T09:55:21.557Z,23.8
2019-05-09T10:00:24.097Z,21.4
2019-05-09T10:05:27.772Z,20.5
2019-05-09T10:15:31.363Z,20.7
2019-05-09T10:20:33.791Z,22.2
2019-05-09T10:25:38.211Z,24.9
2019-05-09T10:30:38.722Z,26.9
2019-05-09T10:35:41.193Z,27.9
2019-05-09T10:40:43.636Z,29
2019-05-09T10:45:48.214Z,28.6
2019-05-09T10:50:53.717Z,31.4
2019-05-09T10:55:51.014Z,30.6
2019-05-09T11:00:53.464Z,28
2019-05-09T11:05:57.892Z,24.9
2019-05-09T11:10:58.581Z,22.7
2019-05-09T11:16:00.984Z,21.2
2019-05-09T11:21:03.324Z,19.9
2019-05-09T11:26:05.747Z,19.4
2019-05-09T11:31:08.524Z,19.8
2019-05-09T11:36:10.655Z,20.8
2019-05-09T11:41:18.852Z,22
2019-05-09T11:46:17.852Z,22.3
2019-05-09T11:51:22.216Z,21.6
2019-05-09T11:56:20.520Z,20.8
2019-05-09T12:01:23.004Z,20.2
2019-05-09T12:06:25.442Z,20
2019-05-09T12:11:27.937Z,20.1
2019-05-09T12:16:30.375Z,20.1
2019-05-09T12:21:32.796Z,20
2019-05-09T12:26:35.258Z,19.1
2019-05-09T12:31:38.645Z,18.6
2019-05-09T12:36:40.208Z,18.1
2019-05-09T12:41:42.636Z,17.1
2019-05-09T12:46:45.135Z,16.3
2019-05-09T12:51:47.536Z,16.4
2019-05-09T12:56:50.020Z,17.5
2019-05-09T13:01:52.510Z,19
2019-05-09T13:06:54.979Z,20
2019-05-09T13:11:57.845Z,19.9
2019-05-09T13:16:59.852Z,20.1
2019-05-09T13:22:02.452Z,20.4
2019-05-09T13:27:04.774Z,20.3
2019-05-09T13:32:08.719Z,20.1
2019-05-09T13:37:09.662Z,20.4
2019-05-09T13:42:12.360Z,20.5
2019-05-09T13:47:14.614Z,19.9
2019-05-09T13:52:17.878Z,19.2
2019-05-09T13:57:19.685Z,18.8
2019-05-09T14:02:21.966Z,18.5
2019-05-09T14:07:24.429Z,18.7
2019-05-09T14:12:28.907Z,18.8
2019-05-09T14:17:44.444Z,18.5
2019-05-09T14:22:31.774Z,18.6
2019-05-09T14:27:34.250Z,18.8
2019-05-09T14:32:39.937Z,18.9
2019-05-09T14:37:39.414Z,18.7
2019-05-09T14:42:41.639Z,18.7
2019-05-09T14:47:44.066Z,18.8
2019-05-09T14:52:48.766Z,19
2019-05-09T14:57:49.066Z,19.1
2019-05-09T15:02:51.508Z,19.3
2019-05-09T15:07:54.215Z,19.3
2019-05-09T15:12:58.490Z,19
2019-05-09T15:17:58.852Z,18.6
2019-05-09T15:23:01.302Z,18.5
2019-05-09T15:28:03.842Z,18.4
2019-05-09T15:33:08.083Z,18.6
2019-05-09T15:38:08.806Z,18.6
2019-05-09T15:43:11.142Z,18.4
2019-05-09T15:48:13.710Z,18.1
2019-05-09T15:53:18.247Z,17.8
2019-05-09T15:58:19.038Z,17.7
2019-05-09T16:03:21.061Z,17.7
2019-05-09T16:08:23.402Z,17.7
2019-05-09T16:13:28.423Z,17.9
2019-05-09T16:18:28.870Z,18
2019-05-09T16:23:30.818Z,17.9
2019-05-09T16:28:33.310Z,17.7
2019-05-09T16:33:35.702Z,17.6
2019-05-09T16:38:45.339Z,17.4
2019-05-09T16:43:40.624Z,17.3
2019-05-09T16:48:43.139Z,17
2019-05-09T16:58:47.983Z,16.2
2019-05-09T17:03:50.444Z,15.9
2019-05-09T17:08:52.924Z,15.6
2019-05-09T17:13:55.544Z,15.4
2019-05-09T17:18:58.236Z,15.2
2019-05-09T17:24:00.300Z,15.2
2019-05-09T17:29:02.759Z,15.2
2019-05-09T17:34:05.181Z,15.2
2019-05-09T17:39:08.053Z,15
2019-05-09T17:44:10.096Z,14.9
2019-05-09T17:54:15.018Z,14.6
2019-05-09T17:59:18.341Z,14.5
2019-05-09T18:09:22.499Z,14.3
2019-05-09T18:14:24.848Z,14.2
2019-05-09T18:19:29.251Z,14.2
2019-05-09T18:24:29.794Z,14.2
2019-05-09T18:29:32.317Z,14.1
2019-05-09T18:34:34.683Z,14.1
2019-05-09T18:39:37.937Z,14
2019-05-09T18:44:39.586Z,14
2019-05-09T18:49:42.049Z,13.8
2019-05-09T18:54:44.524Z,13.7
2019-05-09T18:59:47.149Z,13.6
2019-05-09T19:04:49.573Z,13.5
2019-05-09T19:09:52.385Z,13.4
2019-05-09T19:14:54.365Z,13.1
2019-05-09T19:19:56.826Z,12.8
2019-05-09T19:24:59.285Z,12.6
2019-05-09T19:30:01.893Z,12.4
2019-05-09T19:35:04.220Z,12.2
2019-05-09T19:40:06.789Z,12.1
2019-05-09T19:45:09.095Z,12
2019-05-09T19:50:11.557Z,11.9
2019-05-09T19:55:14.058Z,11.8
2019-05-09T20:00:16.484Z,11.6
2019-05-09T20:05:19.219Z,11.4
2019-05-09T20:10:21.503Z,11.2
2019-05-09T20:15:23.839Z,11.2
2019-05-09T20:20:26.300Z,11.2
2019-05-09T20:25:28.811Z,11.2
2019-05-09T20:30:31.259Z,11.3
2019-05-09T20:35:33.687Z,11.3
2019-05-09T20:45:38.626Z,11.5
2019-05-09T20:50:44.404Z,11.5
2019-05-09T20:55:43.975Z,11.4
2019-05-09T21:00:46.653Z,11.4
2019-05-09T21:05:48.461Z,11.4
2019-05-09T21:10:51.044Z,11.4
2019-05-09T21:15:53.463Z,11.3
2019-05-09T21:20:55.770Z,11.3
2019-05-09T21:25:58.237Z,11.4
2019-05-09T21:31:00.791Z,11.4
2019-05-09T21:36:03.157Z,11.4
2019-05-09T21:41:05.616Z,11.3
2019-05-09T21:46:08.525Z,11.1
2019-05-09T21:51:10.747Z,11
2019-05-09T21:56:12.980Z,10.9
2019-05-09T22:01:15.611Z,10.8
2019-05-09T22:06:17.942Z,10.8
2019-05-09T22:11:20.331Z,10.7
2019-05-09T22:16:22.890Z,10.7
2019-05-09T22:21:25.273Z,10.6
2019-05-09T22:31:30.221Z,10.6
2019-05-09T22:36:32.691Z,10.6
2019-05-09T22:41:35.092Z,10.6
2019-05-09T22:46:37.637Z,10.7
2019-05-09T22:51:40.042Z,10.7
2019-05-09T22:56:42.559Z,10.7
2019-05-09T23:01:45.063Z,10.8
2019-05-09T23:06:47.362Z,10.7
2019-05-09T23:11:49.838Z,10.7
2019-05-09T23:16:52.323Z,10.8
2019-05-09T23:21:55.066Z,10.8
2019-05-09T23:26:57.232Z,10.7
2019-05-09T23:31:59.659Z,10.7
2019-05-09T23:37:02.257Z,10.7
2019-05-09T23:42:04.563Z,10.7
2019-05-09T23:47:07.110Z,10.7
2019-05-09T23:52:09.520Z,10.6
2019-05-09T23:57:12.011Z,10.4
